KTBR/TBR METAR and TAF weather

Enter ICAO airport designator
Station Type Date Time Source
KTBR METAR 2019/07/18 11:15 UTC NOAA

KTBR 181115Z AUTO 00000KT 10SM CLR 24/22 A3007 RMK AO2 T02350215


Station Type Date Time Source
KTBR Decoded METAR 2019/07/18 11:15 UTC NOAA

Statesboro, Statesboro-Bulloch County Airport, GA, United States (KTBR) 32-28-59N 081-44-14W
Jul 18, 2019 - 07:15 AM EDT / 2019.07.18 1115 UTC
Wind: Calm:0
Visibility: 10 mile(s):0
Sky conditions: clear
Temperature: 74.3 F (23.5 C)
Dew Point: 70.7 F (21.5 C)
Relative Humidity: 88%
Pressure (altimeter): 30.07 in. Hg (1018 hPa)
ob: KTBR 181115Z AUTO 00000KT 10SM CLR 24/22 A3007 RMK AO2 T02350215
cycle: 11

Station Type Date Time Source
KTBR TAF UTC NOAA

Error!

Example: see airport list